Terminal Aerodrome Forecast
Issued by NWS

Home | Current Version | Previous Version | Text Only | Print | Product List | Glossary On
Versions: 1 2 3 4 5 6 7 8 9 10 11 12 13
000
FTUS46 KLOX 302343
TAFLGB
TAF
KLGB 302343Z 0100/0124 29013KT P6SM SKC
     FM010200 30006KT P6SM SKC
     FM011100 VRB03KT 4SM BR OVC006
     FM011600 17006KT P6SM SCT010
     FM012000 26011KT P6SM SKC=

USA.gov is the U.S. government's official web portal to all federal, state and local government web resources and services.